sensor_id;sensor_type;location;lat;lon;timestamp;P1;durP1;ratioP1;P2;durP2;ratioP2
74044;SDS011;62389;51.412;5.436;2022-12-29T00:02:01;1.85;;;1.00;;
74044;SDS011;62389;51.412;5.436;2022-12-29T00:04:27;2.35;;;0.82;;
74044;SDS011;62389;51.412;5.436;2022-12-29T00:06:52;2.50;;;1.23;;
74044;SDS011;62389;51.412;5.436;2022-12-29T00:09:18;4.25;;;1.00;;
74044;SDS011;62389;51.412;5.436;2022-12-29T00:11:44;1.73;;;0.88;;
74044;SDS011;62389;51.412;5.436;2022-12-29T00:14:09;1.92;;;0.85;;
74044;SDS011;62389;51.412;5.436;2022-12-29T00:16:55;1.65;;;0.98;;
74044;SDS011;62389;51.412;5.436;2022-12-29T00:19:20;2.75;;;1.02;;
74044;SDS011;62389;51.412;5.436;2022-12-29T00:22:04;3.30;;;1.77;;
74044;SDS011;62389;51.412;5.436;2022-12-29T00:24:49;3.67;;;2.28;;
74044;SDS011;62389;51.412;5.436;2022-12-29T00:27:29;4.95;;;2.75;;
74044;SDS011;62389;51.412;5.436;2022-12-29T00:30:18;4.65;;;2.90;;
74044;SDS011;62389;51.412;5.436;2022-12-29T00:33:10;4.78;;;3.25;;
74044;SDS011;62389;51.412;5.436;2022-12-29T00:38:31;5.82;;;3.33;;
74044;SDS011;62389;51.412;5.436;2022-12-29T00:41:18;8.82;;;3.83;;
74044;SDS011;62389;51.412;5.436;2022-12-29T00:44:02;5.95;;;3.22;;
74044;SDS011;62389;51.412;5.436;2022-12-29T00:46:34;5.40;;;3.40;;
74044;SDS011;62389;51.412;5.436;2022-12-29T00:49:00;8.52;;;3.78;;
74044;SDS011;62389;51.412;5.436;2022-12-29T00:51:45;4.38;;;2.50;;
74044;SDS011;62389;51.412;5.436;2022-12-29T00:54:11;4.88;;;2.63;;
74044;SDS011;62389;51.412;5.436;2022-12-29T00:56:37;3.25;;;2.22;;
74044;SDS011;62389;51.412;5.436;2022-12-29T00:59:04;3.75;;;2.53;;
74044;SDS011;62389;51.412;5.436;2022-12-29T01:01:31;3.95;;;2.15;;
74044;SDS011;62389;51.412;5.436;2022-12-29T01:03:57;3.55;;;2.20;;
74044;SDS011;62389;51.412;5.436;2022-12-29T01:06:23;4.05;;;2.03;;
74044;SDS011;62389;51.412;5.436;2022-12-29T01:08:49;4.07;;;2.00;;
74044;SDS011;62389;51.412;5.436;2022-12-29T01:11:35;3.15;;;1.63;;
74044;SDS011;62389;51.412;5.436;2022-12-29T01:14:01;4.35;;;1.83;;
74044;SDS011;62389;51.412;5.436;2022-12-29T01:16:26;2.88;;;1.60;;
74044;SDS011;62389;51.412;5.436;2022-12-29T01:18:52;2.70;;;1.30;;
74044;SDS011;62389;51.412;5.436;2022-12-29T01:21:17;2.75;;;1.33;;
74044;SDS011;62389;51.412;5.436;2022-12-29T01:23:42;2.38;;;1.23;;
74044;SDS011;62389;51.412;5.436;2022-12-29T01:26:11;2.15;;;1.02;;
74044;SDS011;62389;51.412;5.436;2022-12-29T01:28:37;4.57;;;1.30;;
74044;SDS011;62389;51.412;5.436;2022-12-29T01:31:05;1.75;;;1.15;;
74044;SDS011;62389;51.412;5.436;2022-12-29T01:33:31;3.63;;;1.08;;
74044;SDS011;62389;51.412;5.436;2022-12-29T01:36:00;1.98;;;0.95;;
74044;SDS011;62389;51.412;5.436;2022-12-29T01:38:30;2.38;;;0.85;;
74044;SDS011;62389;51.412;5.436;2022-12-29T01:40:56;1.70;;;0.90;;
74044;SDS011;62389;51.412;5.436;2022-12-29T01:43:21;2.03;;;0.93;;
74044;SDS011;62389;51.412;5.436;2022-12-29T01:46:03;3.63;;;0.95;;
74044;SDS011;62389;51.412;5.436;2022-12-29T01:48:28;3.15;;;1.50;;
74044;SDS011;62389;51.412;5.436;2022-12-29T01:50:53;1.65;;;1.00;;
74044;SDS011;62389;51.412;5.436;2022-12-29T01:53:24;2.45;;;0.90;;
74044;SDS011;62389;51.412;5.436;2022-12-29T01:55:55;2.25;;;1.05;;
74044;SDS011;62389;51.412;5.436;2022-12-29T01:58:28;1.73;;;0.77;;
74044;SDS011;62389;51.412;5.436;2022-12-29T02:00:57;2.67;;;0.85;;
74044;SDS011;62389;51.412;5.436;2022-12-29T02:03:23;2.65;;;0.88;;
74044;SDS011;62389;51.412;5.436;2022-12-29T02:05:52;3.70;;;1.02;;
74044;SDS011;62389;51.412;5.436;2022-12-29T02:08:23;2.88;;;0.98;;
74044;SDS011;62389;51.412;5.436;2022-12-29T02:10:51;2.20;;;0.93;;
74044;SDS011;62389;51.412;5.436;2022-12-29T02:13:17;1.88;;;0.80;;
74044;SDS011;62389;51.412;5.436;2022-12-29T02:18:43;1.85;;;1.00;;
74044;SDS011;62389;51.412;5.436;2022-12-29T02:29:52;1.80;;;0.90;;
74044;SDS011;62389;51.412;5.436;2022-12-29T02:37:49;2.38;;;0.90;;
74044;SDS011;62389;51.412;5.436;2022-12-29T02:40:23;2.15;;;0.80;;
74044;SDS011;62389;51.412;5.436;2022-12-29T02:43:28;1.52;;;0.63;;
74044;SDS011;62389;51.412;5.436;2022-12-29T02:46:18;1.52;;;0.77;;
74044;SDS011;62389;51.412;5.436;2022-12-29T02:48:54;3.63;;;0.77;;
74044;SDS011;62389;51.412;5.436;2022-12-29T02:51:37;2.95;;;1.20;;
74044;SDS011;62389;51.412;5.436;2022-12-29T02:54:09;3.05;;;1.15;;
74044;SDS011;62389;51.412;5.436;2022-12-29T02:56:53;4.72;;;1.10;;
74044;SDS011;62389;51.412;5.436;2022-12-29T02:59:19;1.83;;;0.73;;
74044;SDS011;62389;51.412;5.436;2022-12-29T03:01:57;1.85;;;0.90;;
74044;SDS011;62389;51.412;5.436;2022-12-29T03:07:32;4.75;;;1.17;;
74044;SDS011;62389;51.412;5.436;2022-12-29T03:10:19;2.90;;;0.98;;
74044;SDS011;62389;51.412;5.436;2022-12-29T03:13:43;1.88;;;0.73;;
74044;SDS011;62389;51.412;5.436;2022-12-29T03:16:44;5.78;;;1.17;;
74044;SDS011;62389;51.412;5.436;2022-12-29T03:19:30;2.72;;;0.90;;
74044;SDS011;62389;51.412;5.436;2022-12-29T03:22:05;2.25;;;1.00;;
74044;SDS011;62389;51.412;5.436;2022-12-29T03:24:59;1.73;;;0.63;;
74044;SDS011;62389;51.412;5.436;2022-12-29T03:27:29;2.17;;;0.68;;
74044;SDS011;62389;51.412;5.436;2022-12-29T03:29:59;2.28;;;0.95;;
74044;SDS011;62389;51.412;5.436;2022-12-29T03:32:31;1.70;;;0.63;;
74044;SDS011;62389;51.412;5.436;2022-12-29T03:35:00;2.22;;;0.93;;
74044;SDS011;62389;51.412;5.436;2022-12-29T03:37:28;1.58;;;0.85;;
74044;SDS011;62389;51.412;5.436;2022-12-29T03:39:59;6.07;;;1.10;;
74044;SDS011;62389;51.412;5.436;2022-12-29T03:42:25;2.38;;;0.80;;
74044;SDS011;62389;51.412;5.436;2022-12-29T03:44:55;1.70;;;1.33;;
74044;SDS011;62389;51.412;5.436;2022-12-29T03:47:22;2.97;;;1.33;;
74044;SDS011;62389;51.412;5.436;2022-12-29T03:49:48;2.53;;;0.82;;
74044;SDS011;62389;51.412;5.436;2022-12-29T03:52:15;2.55;;;0.82;;
74044;SDS011;62389;51.412;5.436;2022-12-29T03:54:41;1.85;;;0.57;;
74044;SDS011;62389;51.412;5.436;2022-12-29T03:57:06;2.10;;;0.85;;
74044;SDS011;62389;51.412;5.436;2022-12-29T03:59:32;2.33;;;0.80;;
74044;SDS011;62389;51.412;5.436;2022-12-29T04:01:58;2.22;;;0.70;;
74044;SDS011;62389;51.412;5.436;2022-12-29T04:04:23;1.17;;;0.52;;
74044;SDS011;62389;51.412;5.436;2022-12-29T04:06:48;3.25;;;0.60;;
74044;SDS011;62389;51.412;5.436;2022-12-29T04:09:14;2.85;;;0.95;;
74044;SDS011;62389;51.412;5.436;2022-12-29T04:11:39;1.73;;;0.43;;
74044;SDS011;62389;51.412;5.436;2022-12-29T04:14:05;2.28;;;0.65;;
74044;SDS011;62389;51.412;5.436;2022-12-29T04:16:30;1.33;;;0.80;;
74044;SDS011;62389;51.412;5.436;2022-12-29T04:18:55;3.63;;;0.70;;
74044;SDS011;62389;51.412;5.436;2022-12-29T04:21:21;0.93;;;0.50;;
74044;SDS011;62389;51.412;5.436;2022-12-29T04:23:46;2.88;;;0.80;;
74044;SDS011;62389;51.412;5.436;2022-12-29T04:26:11;3.05;;;0.73;;
74044;SDS011;62389;51.412;5.436;2022-12-29T04:28:37;0.88;;;0.52;;
74044;SDS011;62389;51.412;5.436;2022-12-29T04:31:03;2.78;;;0.60;;
74044;SDS011;62389;51.412;5.436;2022-12-29T04:33:29;2.65;;;0.80;;
74044;SDS011;62389;51.412;5.436;2022-12-29T04:35:55;1.77;;;0.63;;
74044;SDS011;62389;51.412;5.436;2022-12-29T04:38:21;1.65;;;0.82;;
74044;SDS011;62389;51.412;5.436;2022-12-29T04:40:47;4.40;;;1.10;;
74044;SDS011;62389;51.412;5.436;2022-12-29T04:43:13;3.42;;;1.00;;
74044;SDS011;62389;51.412;5.436;2022-12-29T04:45:45;3.25;;;0.82;;
74044;SDS011;62389;51.412;5.436;2022-12-29T04:48:11;3.97;;;0.98;;
74044;SDS011;62389;51.412;5.436;2022-12-29T04:50:37;4.68;;;0.95;;
74044;SDS011;62389;51.412;5.436;2022-12-29T04:53:03;1.60;;;0.63;;
74044;SDS011;62389;51.412;5.436;2022-12-29T04:55:28;2.13;;;0.85;;
74044;SDS011;62389;51.412;5.436;2022-12-29T04:57:53;2.50;;;0.90;;
74044;SDS011;62389;51.412;5.436;2022-12-29T05:00:19;2.55;;;0.60;;
74044;SDS011;62389;51.412;5.436;2022-12-29T05:02:45;2.75;;;0.45;;
74044;SDS011;62389;51.412;5.436;2022-12-29T05:05:10;3.10;;;0.93;;
74044;SDS011;62389;51.412;5.436;2022-12-29T05:07:36;3.72;;;0.95;;
74044;SDS011;62389;51.412;5.436;2022-12-29T05:10:01;2.40;;;0.90;;
74044;SDS011;62389;51.412;5.436;2022-12-29T05:12:33;1.50;;;0.68;;
74044;SDS011;62389;51.412;5.436;2022-12-29T05:14:59;4.72;;;1.58;;
74044;SDS011;62389;51.412;5.436;2022-12-29T05:17:25;3.33;;;0.63;;
74044;SDS011;62389;51.412;5.436;2022-12-29T05:19:51;2.72;;;0.77;;
74044;SDS011;62389;51.412;5.436;2022-12-29T05:22:16;3.05;;;0.82;;
74044;SDS011;62389;51.412;5.436;2022-12-29T05:24:42;2.65;;;0.55;;
74044;SDS011;62389;51.412;5.436;2022-12-29T05:27:07;1.40;;;0.45;;
74044;SDS011;62389;51.412;5.436;2022-12-29T05:29:33;2.60;;;0.77;;
74044;SDS011;62389;51.412;5.436;2022-12-29T05:31:58;3.03;;;0.73;;
74044;SDS011;62389;51.412;5.436;2022-12-29T05:34:24;6.10;;;1.20;;
74044;SDS011;62389;51.412;5.436;2022-12-29T05:36:49;4.60;;;1.38;;
74044;SDS011;62389;51.412;5.436;2022-12-29T05:39:14;1.83;;;0.80;;
74044;SDS011;62389;51.412;5.436;2022-12-29T05:41:40;2.15;;;0.90;;
74044;SDS011;62389;51.412;5.436;2022-12-29T05:44:05;3.05;;;0.80;;
74044;SDS011;62389;51.412;5.436;2022-12-29T05:46:31;3.85;;;1.63;;
74044;SDS011;62389;51.412;5.436;2022-12-29T05:48:56;6.00;;;1.20;;
74044;SDS011;62389;51.412;5.436;2022-12-29T05:51:22;1.58;;;0.85;;
74044;SDS011;62389;51.412;5.436;2022-12-29T05:53:47;5.75;;;0.90;;
74044;SDS011;62389;51.412;5.436;2022-12-29T05:56:12;4.32;;;1.00;;
74044;SDS011;62389;51.412;5.436;2022-12-29T05:58:38;4.88;;;0.88;;
74044;SDS011;62389;51.412;5.436;2022-12-29T06:01:03;2.80;;;0.93;;
74044;SDS011;62389;51.412;5.436;2022-12-29T06:03:29;5.20;;;0.95;;
74044;SDS011;62389;51.412;5.436;2022-12-29T06:05:54;2.90;;;1.35;;
74044;SDS011;62389;51.412;5.436;2022-12-29T06:08:19;3.88;;;1.40;;
74044;SDS011;62389;51.412;5.436;2022-12-29T06:10:45;4.45;;;1.30;;
74044;SDS011;62389;51.412;5.436;2022-12-29T06:13:10;4.53;;;0.88;;
74044;SDS011;62389;51.412;5.436;2022-12-29T06:15:35;3.05;;;1.38;;
74044;SDS011;62389;51.412;5.436;2022-12-29T06:18:01;2.20;;;0.82;;
74044;SDS011;62389;51.412;5.436;2022-12-29T06:20:26;2.95;;;0.98;;
74044;SDS011;62389;51.412;5.436;2022-12-29T06:22:52;1.58;;;0.77;;
74044;SDS011;62389;51.412;5.436;2022-12-29T06:25:17;2.50;;;0.82;;
74044;SDS011;62389;51.412;5.436;2022-12-29T06:27:43;4.85;;;0.90;;
74044;SDS011;62389;51.412;5.436;2022-12-29T06:30:09;3.15;;;0.90;;
74044;SDS011;62389;51.412;5.436;2022-12-29T06:32:35;5.40;;;1.77;;
74044;SDS011;62389;51.412;5.436;2022-12-29T06:35:02;3.22;;;0.90;;
74044;SDS011;62389;51.412;5.436;2022-12-29T06:37:29;4.22;;;1.00;;
74044;SDS011;62389;51.412;5.436;2022-12-29T06:39:54;3.72;;;1.08;;
74044;SDS011;62389;51.412;5.436;2022-12-29T06:42:20;7.68;;;1.02;;
74044;SDS011;62389;51.412;5.436;2022-12-29T06:44:45;6.47;;;1.10;;
74044;SDS011;62389;51.412;5.436;2022-12-29T06:47:10;3.85;;;0.82;;
74044;SDS011;62389;51.412;5.436;2022-12-29T06:49:36;3.42;;;1.10;;
74044;SDS011;62389;51.412;5.436;2022-12-29T06:52:01;3.22;;;0.88;;
74044;SDS011;62389;51.412;5.436;2022-12-29T06:54:29;4.80;;;1.13;;
74044;SDS011;62389;51.412;5.436;2022-12-29T06:56:55;7.93;;;0.88;;
74044;SDS011;62389;51.412;5.436;2022-12-29T06:59:20;4.07;;;0.90;;
74044;SDS011;62389;51.412;5.436;2022-12-29T07:01:46;3.47;;;0.95;;
74044;SDS011;62389;51.412;5.436;2022-12-29T07:04:11;3.38;;;1.10;;
74044;SDS011;62389;51.412;5.436;2022-12-29T07:06:36;6.18;;;1.10;;
74044;SDS011;62389;51.412;5.436;2022-12-29T07:09:02;4.15;;;1.42;;
74044;SDS011;62389;51.412;5.436;2022-12-29T07:11:27;3.83;;;1.00;;
74044;SDS011;62389;51.412;5.436;2022-12-29T07:13:52;5.53;;;1.00;;
74044;SDS011;62389;51.412;5.436;2022-12-29T07:16:18;5.20;;;0.98;;
74044;SDS011;62389;51.412;5.436;2022-12-29T07:18:43;6.05;;;1.58;;
74044;SDS011;62389;51.412;5.436;2022-12-29T07:21:09;3.85;;;0.93;;
74044;SDS011;62389;51.412;5.436;2022-12-29T07:23:34;8.77;;;1.10;;
74044;SDS011;62389;51.412;5.436;2022-12-29T07:26:00;3.75;;;1.15;;
74044;SDS011;62389;51.412;5.436;2022-12-29T07:28:27;7.60;;;1.33;;
74044;SDS011;62389;51.412;5.436;2022-12-29T07:30:52;11.07;;;1.70;;
74044;SDS011;62389;51.412;5.436;2022-12-29T07:33:18;4.15;;;0.85;;
74044;SDS011;62389;51.412;5.436;2022-12-29T07:35:43;6.28;;;1.25;;
74044;SDS011;62389;51.412;5.436;2022-12-29T07:38:08;5.03;;;1.27;;
74044;SDS011;62389;51.412;5.436;2022-12-29T07:40:34;10.38;;;1.05;;
74044;SDS011;62389;51.412;5.436;2022-12-29T07:42:59;9.80;;;1.77;;
74044;SDS011;62389;51.412;5.436;2022-12-29T07:45:24;5.70;;;1.20;;
74044;SDS011;62389;51.412;5.436;2022-12-29T07:47:50;7.97;;;1.17;;
74044;SDS011;62389;51.412;5.436;2022-12-29T07:50:15;4.43;;;1.00;;
74044;SDS011;62389;51.412;5.436;2022-12-29T07:52:41;6.57;;;1.38;;
74044;SDS011;62389;51.412;5.436;2022-12-29T07:55:06;4.53;;;1.10;;
74044;SDS011;62389;51.412;5.436;2022-12-29T07:57:32;5.13;;;1.50;;
74044;SDS011;62389;51.412;5.436;2022-12-29T07:59:57;4.72;;;0.93;;
74044;SDS011;62389;51.412;5.436;2022-12-29T08:02:23;4.47;;;1.33;;
74044;SDS011;62389;51.412;5.436;2022-12-29T08:04:51;5.15;;;1.33;;
74044;SDS011;62389;51.412;5.436;2022-12-29T08:07:16;3.33;;;1.00;;
74044;SDS011;62389;51.412;5.436;2022-12-29T08:09:41;6.43;;;1.25;;
74044;SDS011;62389;51.412;5.436;2022-12-29T08:12:08;4.55;;;0.77;;
74044;SDS011;62389;51.412;5.436;2022-12-29T08:14:35;5.97;;;1.10;;
74044;SDS011;62389;51.412;5.436;2022-12-29T08:17:01;6.00;;;0.98;;
74044;SDS011;62389;51.412;5.436;2022-12-29T08:19:26;6.90;;;1.23;;
74044;SDS011;62389;51.412;5.436;2022-12-29T08:21:52;4.95;;;1.60;;
74044;SDS011;62389;51.412;5.436;2022-12-29T08:24:18;5.35;;;1.20;;
74044;SDS011;62389;51.412;5.436;2022-12-29T08:26:43;5.60;;;1.27;;
74044;SDS011;62389;51.412;5.436;2022-12-29T08:29:09;3.55;;;1.00;;
74044;SDS011;62389;51.412;5.436;2022-12-29T08:31:34;6.78;;;0.82;;
74044;SDS011;62389;51.412;5.436;2022-12-29T08:34:00;6.45;;;1.30;;
74044;SDS011;62389;51.412;5.436;2022-12-29T08:36:26;6.00;;;1.17;;
74044;SDS011;62389;51.412;5.436;2022-12-29T08:38:51;3.47;;;0.98;;
74044;SDS011;62389;51.412;5.436;2022-12-29T08:41:17;3.45;;;1.23;;
74044;SDS011;62389;51.412;5.436;2022-12-29T08:43:45;4.38;;;1.20;;
74044;SDS011;62389;51.412;5.436;2022-12-29T08:46:14;6.80;;;1.40;;
74044;SDS011;62389;51.412;5.436;2022-12-29T08:48:40;6.80;;;1.45;;
74044;SDS011;62389;51.412;5.436;2022-12-29T08:51:05;2.75;;;0.90;;
74044;SDS011;62389;51.412;5.436;2022-12-29T08:53:31;3.35;;;0.93;;
74044;SDS011;62389;51.412;5.436;2022-12-29T08:55:57;5.35;;;1.13;;
74044;SDS011;62389;51.412;5.436;2022-12-29T08:58:24;6.85;;;1.15;;
74044;SDS011;62389;51.412;5.436;2022-12-29T09:00:54;3.28;;;0.90;;
74044;SDS011;62389;51.412;5.436;2022-12-29T09:03:21;6.03;;;1.10;;
74044;SDS011;62389;51.412;5.436;2022-12-29T09:05:47;4.53;;;1.35;;
74044;SDS011;62389;51.412;5.436;2022-12-29T09:08:14;8.80;;;1.63;;
74044;SDS011;62389;51.412;5.436;2022-12-29T09:10:39;3.78;;;1.10;;
74044;SDS011;62389;51.412;5.436;2022-12-29T09:13:05;3.85;;;1.05;;
74044;SDS011;62389;51.412;5.436;2022-12-29T09:15:30;6.55;;;1.73;;
74044;SDS011;62389;51.412;5.436;2022-12-29T09:17:56;3.30;;;0.70;;
74044;SDS011;62389;51.412;5.436;2022-12-29T09:20:21;3.85;;;1.00;;
74044;SDS011;62389;51.412;5.436;2022-12-29T09:22:46;6.75;;;1.10;;
74044;SDS011;62389;51.412;5.436;2022-12-29T09:25:12;5.00;;;1.50;;
74044;SDS011;62389;51.412;5.436;2022-12-29T09:27:38;6.18;;;1.40;;
74044;SDS011;62389;51.412;5.436;2022-12-29T09:30:04;6.07;;;1.13;;
74044;SDS011;62389;51.412;5.436;2022-12-29T09:32:31;4.47;;;1.02;;
74044;SDS011;62389;51.412;5.436;2022-12-29T09:34:57;7.10;;;1.30;;
74044;SDS011;62389;51.412;5.436;2022-12-29T09:37:22;4.70;;;1.30;;
74044;SDS011;62389;51.412;5.436;2022-12-29T09:39:47;5.72;;;1.40;;
74044;SDS011;62389;51.412;5.436;2022-12-29T09:42:19;6.82;;;1.02;;
74044;SDS011;62389;51.412;5.436;2022-12-29T09:47:33;7.07;;;1.05;;
74044;SDS011;62389;51.412;5.436;2022-12-29T09:53:01;4.82;;;1.40;;
74044;SDS011;62389;51.412;5.436;2022-12-29T09:55:39;5.30;;;1.23;;
74044;SDS011;62389;51.412;5.436;2022-12-29T10:09:04;5.55;;;1.08;;
74044;SDS011;62389;51.412;5.436;2022-12-29T10:11:52;11.30;;;1.30;;
74044;SDS011;62389;51.412;5.436;2022-12-29T10:25:38;7.78;;;1.45;;
74044;SDS011;62389;51.412;5.436;2022-12-29T10:28:10;8.75;;;2.08;;
74044;SDS011;62389;51.412;5.436;2022-12-29T10:30:44;7.45;;;1.17;;
74044;SDS011;62389;51.412;5.436;2022-12-29T10:33:14;6.88;;;1.25;;
74044;SDS011;62389;51.412;5.436;2022-12-29T10:35:43;4.70;;;1.60;;
74044;SDS011;62389;51.412;5.436;2022-12-29T10:43:35;3.50;;;1.15;;
74044;SDS011;62389;51.412;5.436;2022-12-29T10:46:11;5.90;;;1.33;;
74044;SDS011;62389;51.412;5.436;2022-12-29T10:48:39;4.22;;;1.35;;
74044;SDS011;62389;51.412;5.436;2022-12-29T10:51:05;4.35;;;1.60;;
74044;SDS011;62389;51.412;5.436;2022-12-29T10:53:35;7.22;;;1.50;;
74044;SDS011;62389;51.412;5.436;2022-12-29T10:56:11;5.18;;;1.60;;
74044;SDS011;62389;51.412;5.436;2022-12-29T10:58:52;4.45;;;1.27;;
74044;SDS011;62389;51.412;5.436;2022-12-29T11:01:22;3.83;;;1.08;;
74044;SDS011;62389;51.412;5.436;2022-12-29T11:04:02;6.50;;;1.50;;
74044;SDS011;62389;51.412;5.436;2022-12-29T11:06:31;5.80;;;1.20;;
74044;SDS011;62389;51.412;5.436;2022-12-29T11:08:57;2.80;;;1.20;;
74044;SDS011;62389;51.412;5.436;2022-12-29T11:11:27;4.90;;;1.33;;
74044;SDS011;62389;51.412;5.436;2022-12-29T11:14:02;3.17;;;1.08;;
74044;SDS011;62389;51.412;5.436;2022-12-29T11:16:33;4.72;;;1.13;;
74044;SDS011;62389;51.412;5.436;2022-12-29T11:18:59;8.10;;;2.38;;
74044;SDS011;62389;51.412;5.436;2022-12-29T11:21:38;5.55;;;1.77;;
74044;SDS011;62389;51.412;5.436;2022-12-29T11:24:28;3.30;;;1.50;;
74044;SDS011;62389;51.412;5.436;2022-12-29T11:26:54;5.70;;;1.58;;
74044;SDS011;62389;51.412;5.436;2022-12-29T11:29:25;8.40;;;1.42;;
74044;SDS011;62389;51.412;5.436;2022-12-29T11:31:56;6.10;;;1.80;;
74044;SDS011;62389;51.412;5.436;2022-12-29T11:36:58;5.50;;;1.38;;
74044;SDS011;62389;51.412;5.436;2022-12-29T11:39:37;8.90;;;1.83;;
74044;SDS011;62389;51.412;5.436;2022-12-29T11:42:13;7.28;;;1.60;;
74044;SDS011;62389;51.412;5.436;2022-12-29T11:44:42;6.88;;;1.25;;
74044;SDS011;62389;51.412;5.436;2022-12-29T11:47:11;6.15;;;1.20;;
74044;SDS011;62389;51.412;5.436;2022-12-29T11:49:49;6.97;;;2.20;;
74044;SDS011;62389;51.412;5.436;2022-12-29T11:52:20;6.88;;;1.52;;
74044;SDS011;62389;51.412;5.436;2022-12-29T11:54:48;6.07;;;1.58;;
74044;SDS011;62389;51.412;5.436;2022-12-29T11:57:15;5.22;;;1.40;;
74044;SDS011;62389;51.412;5.436;2022-12-29T11:59:54;9.32;;;1.80;;
74044;SDS011;62389;51.412;5.436;2022-12-29T12:08:18;8.15;;;2.38;;
74044;SDS011;62389;51.412;5.436;2022-12-29T12:16:22;6.13;;;1.13;;
74044;SDS011;62389;51.412;5.436;2022-12-29T12:18:53;8.23;;;1.42;;
74044;SDS011;62389;51.412;5.436;2022-12-29T12:26:36;8.18;;;1.45;;
74044;SDS011;62389;51.412;5.436;2022-12-29T12:29:19;7.15;;;1.27;;
74044;SDS011;62389;51.412;5.436;2022-12-29T12:31:52;4.65;;;1.30;;
74044;SDS011;62389;51.412;5.436;2022-12-29T12:42:47;6.00;;;1.40;;
74044;SDS011;62389;51.412;5.436;2022-12-29T12:59:11;5.25;;;1.90;;
74044;SDS011;62389;51.412;5.436;2022-12-29T13:04:29;6.28;;;1.60;;
74044;SDS011;62389;51.412;5.436;2022-12-29T13:28:59;7.65;;;1.67;;
74044;SDS011;62389;51.412;5.436;2022-12-29T13:37:15;8.38;;;1.95;;
74044;SDS011;62389;51.412;5.436;2022-12-29T13:40:02;7.10;;;1.95;;
74044;SDS011;62389;51.412;5.436;2022-12-29T13:42:38;5.60;;;1.98;;
74044;SDS011;62389;51.412;5.436;2022-12-29T13:45:12;8.30;;;2.10;;
74044;SDS011;62389;51.412;5.436;2022-12-29T13:47:42;4.13;;;1.40;;
74044;SDS011;62389;51.412;5.436;2022-12-29T13:50:18;9.68;;;2.25;;
74044;SDS011;62389;51.412;5.436;2022-12-29T13:58:34;10.40;;;2.25;;
74044;SDS011;62389;51.412;5.436;2022-12-29T14:03:44;9.40;;;1.95;;
74044;SDS011;62389;51.412;5.436;2022-12-29T14:08:42;6.60;;;1.52;;
74044;SDS011;62389;51.412;5.436;2022-12-29T14:11:09;8.55;;;2.08;;
74044;SDS011;62389;51.412;5.436;2022-12-29T14:13:39;7.13;;;1.52;;
74044;SDS011;62389;51.412;5.436;2022-12-29T14:16:07;4.53;;;2.03;;
74044;SDS011;62389;51.412;5.436;2022-12-29T14:18:49;5.95;;;1.40;;
74044;SDS011;62389;51.412;5.436;2022-12-29T14:21:21;6.53;;;1.70;;
74044;SDS011;62389;51.412;5.436;2022-12-29T14:23:53;6.68;;;1.55;;
74044;SDS011;62389;51.412;5.436;2022-12-29T14:28:53;4.07;;;1.42;;
74044;SDS011;62389;51.412;5.436;2022-12-29T14:36:38;8.63;;;1.63;;
74044;SDS011;62389;51.412;5.436;2022-12-29T14:39:04;7.05;;;1.73;;
74044;SDS011;62389;51.412;5.436;2022-12-29T14:41:48;5.45;;;1.40;;
74044;SDS011;62389;51.412;5.436;2022-12-29T14:44:25;3.75;;;1.52;;
74044;SDS011;62389;51.412;5.436;2022-12-29T14:49:22;6.72;;;1.35;;
74044;SDS011;62389;51.412;5.436;2022-12-29T14:51:51;8.93;;;2.30;;
74044;SDS011;62389;51.412;5.436;2022-12-29T14:56:59;5.47;;;1.73;;
74044;SDS011;62389;51.412;5.436;2022-12-29T14:59:28;9.38;;;1.63;;
74044;SDS011;62389;51.412;5.436;2022-12-29T15:01:56;6.53;;;2.03;;
74044;SDS011;62389;51.412;5.436;2022-12-29T15:04:25;6.57;;;2.05;;
74044;SDS011;62389;51.412;5.436;2022-12-29T15:06:55;5.10;;;1.60;;
74044;SDS011;62389;51.412;5.436;2022-12-29T15:12:04;3.65;;;1.45;;
74044;SDS011;62389;51.412;5.436;2022-12-29T15:14:47;4.25;;;1.35;;
74044;SDS011;62389;51.412;5.436;2022-12-29T15:17:51;4.03;;;1.73;;
74044;SDS011;62389;51.412;5.436;2022-12-29T15:20:29;7.72;;;1.75;;
74044;SDS011;62389;51.412;5.436;2022-12-29T15:25:28;3.28;;;1.33;;
74044;SDS011;62389;51.412;5.436;2022-12-29T15:27:59;3.97;;;1.33;;
74044;SDS011;62389;51.412;5.436;2022-12-29T15:30:27;4.70;;;1.40;;
74044;SDS011;62389;51.412;5.436;2022-12-29T15:32:54;7.07;;;1.52;;
74044;SDS011;62389;51.412;5.436;2022-12-29T15:37:50;4.55;;;1.20;;
74044;SDS011;62389;51.412;5.436;2022-12-29T15:40:25;2.72;;;1.25;;
74044;SDS011;62389;51.412;5.436;2022-12-29T15:45:28;5.97;;;1.17;;
74044;SDS011;62389;51.412;5.436;2022-12-29T15:47:58;3.42;;;1.58;;
74044;SDS011;62389;51.412;5.436;2022-12-29T15:50:57;6.45;;;1.83;;
74044;SDS011;62389;51.412;5.436;2022-12-29T15:53:23;5.40;;;1.83;;
74044;SDS011;62389;51.412;5.436;2022-12-29T15:55:54;5.50;;;1.75;;
74044;SDS011;62389;51.412;5.436;2022-12-29T15:58:27;9.80;;;1.40;;
74044;SDS011;62389;51.412;5.436;2022-12-29T16:00:58;4.93;;;1.75;;
74044;SDS011;62389;51.412;5.436;2022-12-29T16:03:25;5.75;;;1.23;;
74044;SDS011;62389;51.412;5.436;2022-12-29T16:05:56;4.53;;;1.13;;
74044;SDS011;62389;51.412;5.436;2022-12-29T16:10:58;4.03;;;1.15;;
74044;SDS011;62389;51.412;5.436;2022-12-29T16:16:07;1.33;;;0.77;;
74044;SDS011;62389;51.412;5.436;2022-12-29T16:21:00;2.92;;;0.93;;
74044;SDS011;62389;51.412;5.436;2022-12-29T16:23:27;2.10;;;0.98;;
74044;SDS011;62389;51.412;5.436;2022-12-29T16:25:55;2.83;;;1.27;;
74044;SDS011;62389;51.412;5.436;2022-12-29T16:28:23;3.20;;;1.00;;
74044;SDS011;62389;51.412;5.436;2022-12-29T16:30:57;4.03;;;1.10;;
74044;SDS011;62389;51.412;5.436;2022-12-29T16:41:36;2.47;;;0.85;;
74044;SDS011;62389;51.412;5.436;2022-12-29T16:44:11;4.32;;;1.38;;
74044;SDS011;62389;51.412;5.436;2022-12-29T16:46:43;3.78;;;1.00;;
74044;SDS011;62389;51.412;5.436;2022-12-29T16:49:22;3.30;;;1.10;;
74044;SDS011;62389;51.412;5.436;2022-12-29T16:51:48;3.33;;;1.13;;
74044;SDS011;62389;51.412;5.436;2022-12-29T16:54:18;5.28;;;1.30;;
74044;SDS011;62389;51.412;5.436;2022-12-29T16:56:46;6.35;;;2.00;;
74044;SDS011;62389;51.412;5.436;2022-12-29T16:59:26;7.28;;;2.28;;
74044;SDS011;62389;51.412;5.436;2022-12-29T17:01:54;4.70;;;1.50;;
74044;SDS011;62389;51.412;5.436;2022-12-29T17:04:20;4.85;;;1.45;;
74044;SDS011;62389;51.412;5.436;2022-12-29T17:06:46;4.50;;;1.50;;
74044;SDS011;62389;51.412;5.436;2022-12-29T17:09:21;7.88;;;1.48;;
74044;SDS011;62389;51.412;5.436;2022-12-29T17:11:52;6.40;;;1.15;;
74044;SDS011;62389;51.412;5.436;2022-12-29T17:17:05;8.75;;;1.70;;
74044;SDS011;62389;51.412;5.436;2022-12-29T17:19:37;5.97;;;1.33;;
74044;SDS011;62389;51.412;5.436;2022-12-29T17:22:08;4.32;;;0.88;;
74044;SDS011;62389;51.412;5.436;2022-12-29T17:24:37;3.67;;;1.05;;
74044;SDS011;62389;51.412;5.436;2022-12-29T17:27:02;3.38;;;1.63;;
74044;SDS011;62389;51.412;5.436;2022-12-29T17:29:35;8.32;;;1.48;;
74044;SDS011;62389;51.412;5.436;2022-12-29T17:32:04;16.00;;;2.00;;
74044;SDS011;62389;51.412;5.436;2022-12-29T17:34:34;5.68;;;1.70;;
74044;SDS011;62389;51.412;5.436;2022-12-29T17:36:59;4.22;;;1.70;;
74044;SDS011;62389;51.412;5.436;2022-12-29T17:39:24;9.43;;;1.77;;
74044;SDS011;62389;51.412;5.436;2022-12-29T17:41:50;5.70;;;1.98;;
74044;SDS011;62389;51.412;5.436;2022-12-29T17:44:16;5.18;;;1.17;;
74044;SDS011;62389;51.412;5.436;2022-12-29T17:46:43;8.90;;;1.75;;
74044;SDS011;62389;51.412;5.436;2022-12-29T17:49:13;8.95;;;1.65;;
74044;SDS011;62389;51.412;5.436;2022-12-29T17:51:44;9.30;;;2.03;;
74044;SDS011;62389;51.412;5.436;2022-12-29T17:54:20;9.60;;;1.77;;
74044;SDS011;62389;51.412;5.436;2022-12-29T17:56:49;5.07;;;1.48;;
74044;SDS011;62389;51.412;5.436;2022-12-29T17:59:14;10.20;;;1.67;;
74044;SDS011;62389;51.412;5.436;2022-12-29T18:01:42;8.40;;;2.42;;
74044;SDS011;62389;51.412;5.436;2022-12-29T18:04:11;10.95;;;1.88;;